createdAt,value
2023-02-02T00:02:01.416Z,94004.50
2023-02-02T00:04:34.116Z,94005.44
2023-02-02T00:07:01.732Z,94005.00
2023-02-02T00:09:29.886Z,93991.56
2023-02-02T00:11:57.153Z,93992.66
2023-02-02T00:14:24.906Z,94001.06
2023-02-02T00:16:53.512Z,93999.53
2023-02-02T00:19:26.586Z,93991.00
2023-02-02T00:21:54.748Z,94004.72
2023-02-02T00:24:21.811Z,94006.47
2023-02-02T00:26:52.101Z,93989.34
2023-02-02T00:29:26.469Z,94001.38
2023-02-02T00:31:53.525Z,93994.91
2023-02-02T00:34:20.969Z,93992.72
2023-02-02T00:36:48.576Z,93972.66
2023-02-02T00:39:18.754Z,93982.41
2023-02-02T00:41:46.188Z,93976.81
2023-02-02T00:44:32.133Z,93976.47
2023-02-02T00:46:58.912Z,93949.63
2023-02-02T00:49:25.601Z,93969.47
2023-02-02T00:51:52.429Z,93950.22
2023-02-02T00:54:19.152Z,93935.53
2023-02-02T00:56:45.860Z,93941.22
2023-02-02T00:59:12.593Z,93958.84
2023-02-02T01:01:39.424Z,93954.53
2023-02-02T01:04:06.254Z,93969.91
2023-02-02T01:06:32.971Z,93975.81
2023-02-02T01:08:59.639Z,93984.50
2023-02-02T01:11:26.461Z,93969.41
2023-02-02T01:13:53.218Z,93974.84
2023-02-02T01:16:22.614Z,93958.56
2023-02-02T01:18:50.810Z,93965.56
2023-02-02T01:21:18.224Z,93962.25
2023-02-02T01:23:45.201Z,93972.31
2023-02-02T01:26:12.931Z,93977.41
2023-02-02T01:28:40.489Z,93967.50
2023-02-02T01:31:17.051Z,93957.81
2023-02-02T01:33:44.885Z,93959.88
2023-02-02T01:36:14.748Z,93957.66
2023-02-02T01:38:42.484Z,93946.34
2023-02-02T01:41:12.859Z,93936.44
2023-02-02T01:43:45.460Z,93958.28
2023-02-02T01:46:13.724Z,93946.44
2023-02-02T01:48:42.386Z,93942.59
2023-02-02T01:51:17.976Z,93945.16
2023-02-02T01:53:45.481Z,93941.38
2023-02-02T01:56:18.042Z,93946.50
2023-02-02T01:58:45.185Z,93943.88
2023-02-02T02:01:12.181Z,93950.78
2023-02-02T02:03:38.784Z,93937.84
2023-02-02T02:06:12.826Z,93933.09
2023-02-02T02:08:55.955Z,93948.53
2023-02-02T02:11:23.404Z,93952.81
2023-02-02T02:14:09.162Z,93940.97
2023-02-02T02:16:49.576Z,93943.81
2023-02-02T02:19:58.094Z,93958.63
2023-02-02T02:22:44.350Z,93923.38
2023-02-02T02:25:53.606Z,93923.72
2023-02-02T02:28:51.375Z,93956.56
2023-02-02T02:31:33.457Z,93946.22
2023-02-02T02:34:29.676Z,93951.09
2023-02-02T02:37:17.736Z,93941.31
2023-02-02T02:40:03.377Z,93941.03
2023-02-02T02:42:34.936Z,93934.72
2023-02-02T02:45:03.444Z,93919.19
2023-02-02T02:47:31.325Z,93927.97
2023-02-02T02:49:58.063Z,93917.09
2023-02-02T02:52:24.734Z,93935.03
2023-02-02T02:54:55.325Z,93904.91
2023-02-02T02:57:50.640Z,93923.22
2023-02-02T03:00:29.065Z,93901.16
2023-02-02T03:03:17.217Z,93911.06
2023-02-02T03:05:50.046Z,93899.22
2023-02-02T03:08:31.717Z,93893.75
2023-02-02T03:10:59.183Z,93886.59
2023-02-02T03:13:26.805Z,93900.00
2023-02-02T03:15:53.608Z,93895.34
2023-02-02T03:18:23.149Z,93890.28
2023-02-02T03:20:49.825Z,93884.91
2023-02-02T03:23:16.534Z,93871.81
2023-02-02T03:25:43.743Z,93877.94
2023-02-02T03:28:10.888Z,93891.38
2023-02-02T03:30:39.025Z,93891.88
2023-02-02T03:33:06.367Z,93894.25
2023-02-02T03:35:33.090Z,93896.81
2023-02-02T03:37:59.825Z,93877.72
2023-02-02T03:40:28.277Z,93894.34
2023-02-02T03:42:55.704Z,93889.31
2023-02-02T03:45:22.511Z,93891.88
2023-02-02T03:47:49.395Z,93893.59
2023-02-02T03:50:16.385Z,93869.63
2023-02-02T03:52:43.087Z,93886.38
2023-02-02T03:55:09.877Z,93884.03
2023-02-02T03:57:36.551Z,93853.09
2023-02-02T04:00:04.187Z,93879.31
2023-02-02T04:02:31.023Z,93877.84
2023-02-02T04:04:57.775Z,93872.59
2023-02-02T04:07:24.509Z,93865.44
2023-02-02T04:09:51.271Z,93860.59
2023-02-02T04:12:18.166Z,93873.91
2023-02-02T04:14:44.905Z,93898.09
2023-02-02T04:17:11.785Z,93881.47
2023-02-02T04:19:38.510Z,93856.66
2023-02-02T04:22:05.257Z,93863.50
2023-02-02T04:24:32.006Z,93891.25
2023-02-02T04:26:58.665Z,93879.06
2023-02-02T04:29:26.498Z,93861.47
2023-02-02T04:31:53.241Z,93881.53
2023-02-02T04:34:19.916Z,93867.22
2023-02-02T04:36:46.696Z,93869.38
2023-02-02T04:39:13.355Z,93853.22
2023-02-02T04:41:40.895Z,93876.63
2023-02-02T04:44:14.409Z,93862.38
2023-02-02T04:46:41.206Z,93867.84
2023-02-02T04:49:09.830Z,93842.59
2023-02-02T04:51:36.546Z,93855.34
2023-02-02T04:54:03.421Z,93850.91
2023-02-02T04:56:30.157Z,93848.56
2023-02-02T04:58:56.952Z,93862.38
2023-02-02T05:01:23.830Z,93851.47
2023-02-02T05:03:51.128Z,93857.09
2023-02-02T05:06:19.425Z,93877.25
2023-02-02T05:08:48.105Z,93860.66
2023-02-02T05:11:18.176Z,93860.19
2023-02-02T05:13:50.696Z,93854.22
2023-02-02T05:16:17.714Z,93856.75
2023-02-02T05:18:52.601Z,93867.47
2023-02-02T05:21:19.908Z,93873.28
2023-02-02T05:23:47.232Z,93886.28
2023-02-02T05:26:17.039Z,93889.41
2023-02-02T05:28:43.757Z,93878.84
2023-02-02T05:31:10.645Z,93876.59
2023-02-02T05:33:37.478Z,93886.81
2023-02-02T05:36:04.804Z,93875.03
2023-02-02T05:38:31.842Z,93897.91
2023-02-02T05:40:58.651Z,93916.91
2023-02-02T05:43:26.520Z,93915.66
2023-02-02T05:45:53.683Z,93919.69
2023-02-02T05:48:20.723Z,93910.38
2023-02-02T05:50:55.531Z,93929.25
2023-02-02T05:53:22.141Z,93930.63
2023-02-02T05:55:48.850Z,93943.44
2023-02-02T05:58:15.642Z,93941.22
2023-02-02T06:00:42.378Z,93950.97
2023-02-02T06:03:09.184Z,93971.97
2023-02-02T06:05:35.974Z,93967.38
2023-02-02T06:08:02.685Z,93961.31
2023-02-02T06:10:31.555Z,93954.94
2023-02-02T06:12:58.842Z,93952.38
2023-02-02T06:15:27.732Z,93963.09
2023-02-02T06:17:54.699Z,93975.09
2023-02-02T06:20:22.493Z,93992.56
2023-02-02T06:22:49.266Z,93984.34
2023-02-02T06:25:16.053Z,93987.28
2023-02-02T06:27:45.335Z,93989.03
2023-02-02T06:30:13.467Z,93989.75
2023-02-02T06:32:40.427Z,94000.19
2023-02-02T06:35:07.814Z,94009.47
2023-02-02T06:37:34.639Z,94013.94
2023-02-02T06:40:01.295Z,94021.78
2023-02-02T06:42:28.045Z,94023.38
2023-02-02T06:44:54.797Z,94017.31
2023-02-02T06:47:21.435Z,94014.63
2023-02-02T06:49:48.111Z,94028.19
2023-02-02T06:52:14.852Z,94020.97
2023-02-02T06:54:41.505Z,94014.63
2023-02-02T06:57:09.517Z,94006.75
2023-02-02T06:59:36.751Z,94018.75
2023-02-02T07:02:03.511Z,94027.88
2023-02-02T07:04:30.440Z,94024.00
2023-02-02T07:06:57.263Z,94030.75
2023-02-02T07:09:24.068Z,94024.88
2023-02-02T07:11:50.815Z,94030.47
2023-02-02T07:14:17.649Z,94034.56
2023-02-02T07:16:44.334Z,94041.94
2023-02-02T07:19:11.090Z,94041.63
2023-02-02T07:21:37.845Z,94045.44
2023-02-02T07:24:05.689Z,94049.19
2023-02-02T07:26:34.679Z,94054.41
2023-02-02T07:29:01.582Z,94056.47
2023-02-02T07:31:29.247Z,94053.09
2023-02-02T07:33:56.129Z,94063.03
2023-02-02T07:36:24.460Z,94069.75
2023-02-02T07:38:57.543Z,94073.75
2023-02-02T07:41:24.739Z,94073.75
2023-02-02T07:43:51.585Z,94075.50
2023-02-02T07:46:19.143Z,94081.09
2023-02-02T07:48:45.944Z,94085.41
2023-02-02T07:51:15.929Z,94091.44
2023-02-02T07:53:50.846Z,94099.97
2023-02-02T07:56:22.690Z,94105.88
2023-02-02T07:58:51.882Z,94106.84
2023-02-02T08:01:20.492Z,94101.09
2023-02-02T08:03:47.359Z,94105.75
2023-02-02T08:06:20.095Z,94111.47
2023-02-02T08:08:47.982Z,94113.53
2023-02-02T08:11:17.014Z,94126.50
2023-02-02T08:13:44.556Z,94130.69
2023-02-02T08:16:12.030Z,94141.72
2023-02-02T08:18:38.877Z,94127.00
2023-02-02T08:21:08.824Z,94137.56
2023-02-02T08:23:36.764Z,94135.00
2023-02-02T08:26:14.702Z,94141.09
2023-02-02T08:28:43.320Z,94136.28
2023-02-02T08:31:14.910Z,94133.41
2023-02-02T08:33:41.900Z,94141.25
2023-02-02T08:36:12.646Z,94131.16
2023-02-02T08:38:39.724Z,94142.38
2023-02-02T08:41:07.741Z,94147.78
2023-02-02T08:43:34.605Z,94144.91
2023-02-02T08:46:05.599Z,94152.91
2023-02-02T08:48:33.577Z,94147.47
2023-02-02T08:51:00.596Z,94153.06
2023-02-02T08:53:28.208Z,94149.88
2023-02-02T08:56:15.353Z,94158.31
2023-02-02T08:58:46.856Z,94167.91
2023-02-02T09:01:16.127Z,94164.25
2023-02-02T09:03:43.344Z,94162.31
2023-02-02T09:06:15.704Z,94175.91
2023-02-02T09:08:42.783Z,94170.03
2023-02-02T09:11:12.549Z,94173.69
2023-02-02T09:13:40.194Z,94168.56
2023-02-02T09:16:09.542Z,94180.06
2023-02-02T09:18:36.626Z,94186.47
2023-02-02T09:21:05.540Z,94174.16
2023-02-02T09:23:33.544Z,94188.41
2023-02-02T09:26:40.686Z,94181.03
2023-02-02T09:29:08.843Z,94187.75
2023-02-02T09:31:37.705Z,94192.25
2023-02-02T09:34:10.015Z,94201.84
2023-02-02T09:36:37.515Z,94188.06
2023-02-02T09:39:04.637Z,94187.44
2023-02-02T09:41:37.311Z,94196.34
2023-02-02T09:44:40.480Z,94195.41
2023-02-02T09:47:07.232Z,94196.34
2023-02-02T09:50:01.691Z,94195.56
2023-02-02T09:52:41.162Z,94202.44
2023-02-02T09:55:36.878Z,94205.63
2023-02-02T09:58:21.409Z,94204.53
2023-02-02T10:01:07.863Z,94212.22
2023-02-02T10:03:59.595Z,94222.28
2023-02-02T10:06:39.252Z,94199.06
2023-02-02T10:09:26.583Z,94219.25
2023-02-02T10:11:59.691Z,94224.53
2023-02-02T10:14:40.703Z,94211.72
2023-02-02T10:17:39.783Z,94221.66
2023-02-02T10:20:21.106Z,94223.88
2023-02-02T10:22:48.511Z,94217.16
2023-02-02T10:25:15.879Z,94222.91
2023-02-02T10:27:50.013Z,94221.31
2023-02-02T10:30:20.413Z,94222.94
2023-02-02T10:33:09.026Z,94218.28
2023-02-02T10:35:46.554Z,94217.13
2023-02-02T10:38:47.713Z,94210.31
2023-02-02T10:41:34.023Z,94206.31
2023-02-02T10:44:04.422Z,94212.03
2023-02-02T10:46:34.545Z,94210.13
2023-02-02T10:49:13.659Z,94205.00
2023-02-02T10:51:41.591Z,94185.31
2023-02-02T10:54:30.066Z,94196.47
2023-02-02T10:56:59.695Z,94189.91
2023-02-02T10:59:31.302Z,94193.38
2023-02-02T11:02:03.728Z,94190.72
2023-02-02T11:04:55.110Z,94195.44
2023-02-02T11:07:21.819Z,94186.63
2023-02-02T11:09:48.552Z,94193.06
2023-02-02T11:12:31.737Z,94187.28
2023-02-02T11:15:07.586Z,94180.94
2023-02-02T11:17:35.613Z,94176.47
2023-02-02T11:20:02.480Z,94178.38
2023-02-02T11:22:34.873Z,94177.72
2023-02-02T11:25:05.348Z,94181.59
2023-02-02T11:27:41.611Z,94181.31
2023-02-02T11:30:27.458Z,94180.34
2023-02-02T11:32:55.906Z,94179.84
2023-02-02T11:35:27.203Z,94179.34
2023-02-02T11:38:01.238Z,94175.03
2023-02-02T11:40:36.930Z,94167.50
2023-02-02T11:43:15.786Z,94165.00
2023-02-02T11:45:43.772Z,94168.63
2023-02-02T11:48:23.005Z,94162.69
2023-02-02T11:50:55.407Z,94167.69
2023-02-02T11:53:43.025Z,94157.47
2023-02-02T11:56:25.215Z,94157.28
2023-02-02T11:58:56.649Z,94159.88
2023-02-02T12:01:35.670Z,94159.50
2023-02-02T12:04:22.423Z,94149.94
2023-02-02T12:06:49.154Z,94158.59
2023-02-02T12:09:24.317Z,94151.69
2023-02-02T12:12:11.733Z,94155.31
2023-02-02T12:14:48.884Z,94152.63
2023-02-02T12:17:28.863Z,94139.06
2023-02-02T12:19:58.782Z,94146.47
2023-02-02T12:22:31.303Z,94141.94
2023-02-02T12:25:11.505Z,94143.56
2023-02-02T12:27:59.185Z,94147.91
2023-02-02T12:30:59.825Z,94143.44
2023-02-02T12:33:39.192Z,94136.22
2023-02-02T12:36:13.523Z,94137.94
2023-02-02T12:39:07.104Z,94137.47
2023-02-02T12:42:01.203Z,94141.31
2023-02-02T12:44:57.303Z,94131.28
2023-02-02T12:47:39.639Z,94117.03
2023-02-02T12:50:18.680Z,94134.16
2023-02-02T12:52:53.062Z,94121.69
2023-02-02T12:55:44.903Z,94118.31
2023-02-02T12:58:37.094Z,94126.31
2023-02-02T13:01:03.825Z,94123.38
2023-02-02T13:03:48.226Z,94136.56
2023-02-02T13:06:36.726Z,94123.28
2023-02-02T13:09:05.894Z,94127.59
2023-02-02T13:11:45.975Z,94134.63
2023-02-02T13:14:16.983Z,94128.72
2023-02-02T13:16:48.674Z,94124.25
2023-02-02T13:19:33.146Z,94127.75
2023-02-02T13:22:01.230Z,94125.69
2023-02-02T13:24:31.262Z,94129.84
2023-02-02T13:27:01.635Z,94136.25
2023-02-02T13:29:50.227Z,94134.69
2023-02-02T13:32:36.997Z,94139.81
2023-02-02T13:35:17.614Z,94146.50
2023-02-02T13:38:18.313Z,94142.16
2023-02-02T13:40:45.391Z,94131.28
2023-02-02T13:43:31.220Z,94142.00
2023-02-02T13:46:10.236Z,94148.56
2023-02-02T13:48:42.642Z,94145.34
2023-02-02T13:51:31.284Z,94148.56
2023-02-02T13:54:22.883Z,94151.28
2023-02-02T13:57:17.278Z,94147.59
2023-02-02T14:00:05.906Z,94151.25
2023-02-02T14:02:41.760Z,94154.16
2023-02-02T14:05:09.143Z,94156.56
2023-02-02T14:07:43.416Z,94161.34
2023-02-02T14:10:32.763Z,94164.06
2023-02-02T14:13:41.884Z,94160.25
2023-02-02T14:16:25.075Z,94147.00
2023-02-02T14:18:57.027Z,94166.00
2023-02-02T14:21:32.729Z,94150.63
2023-02-02T14:24:03.667Z,94167.91
2023-02-02T14:26:43.988Z,94161.84
2023-02-02T14:29:31.282Z,94158.16
2023-02-02T14:32:17.784Z,94163.91
2023-02-02T14:34:45.127Z,94178.00
2023-02-02T14:37:23.903Z,94170.28
2023-02-02T14:39:54.104Z,94174.50
2023-02-02T14:43:04.543Z,94194.50
2023-02-02T14:45:36.776Z,94172.72
2023-02-02T14:48:06.279Z,94174.81
2023-02-02T14:50:39.053Z,94190.97
2023-02-02T14:53:08.663Z,94167.78
2023-02-02T14:55:50.842Z,94186.81
2023-02-02T14:58:44.058Z,94176.91
2023-02-02T15:01:23.890Z,94177.72
2023-02-02T15:04:00.625Z,94184.59
2023-02-02T15:06:38.045Z,94183.94
2023-02-02T15:09:20.057Z,94178.19
2023-02-02T15:12:01.232Z,94191.47
2023-02-02T15:14:47.487Z,94201.88
2023-02-02T15:17:40.987Z,94182.50
2023-02-02T15:20:13.585Z,94191.16
2023-02-02T15:22:55.503Z,94187.63
2023-02-02T15:25:25.040Z,94182.84
2023-02-02T15:28:09.498Z,94206.34
2023-02-02T15:30:38.175Z,94187.81
2023-02-02T15:33:37.837Z,94180.13
2023-02-02T15:36:09.839Z,94198.03
2023-02-02T15:38:39.663Z,94198.03
2023-02-02T15:41:27.882Z,94201.06
2023-02-02T15:43:54.723Z,94197.06
2023-02-02T15:46:25.054Z,94206.69
2023-02-02T15:49:37.760Z,94204.72
2023-02-02T15:52:15.602Z,94206.69
2023-02-02T15:54:54.082Z,94216.75
2023-02-02T15:57:25.143Z,94219.78
2023-02-02T15:59:51.967Z,94215.94
2023-02-02T16:02:18.817Z,94225.19
2023-02-02T16:04:45.685Z,94232.56
2023-02-02T16:07:18.823Z,94239.44
2023-02-02T16:09:45.937Z,94228.09
2023-02-02T16:12:21.731Z,94227.78
2023-02-02T16:14:51.746Z,94237.84
2023-02-02T16:17:24.666Z,94246.97
2023-02-02T16:20:09.945Z,94258.66
2023-02-02T16:22:37.776Z,94240.72
2023-02-02T16:25:15.831Z,94254.78
2023-02-02T16:27:46.370Z,94251.28
2023-02-02T16:30:24.224Z,94253.03
2023-02-02T16:32:50.962Z,94253.66
2023-02-02T16:35:31.793Z,94259.13
2023-02-02T16:38:15.982Z,94260.69
2023-02-02T16:40:42.898Z,94270.94
2023-02-02T16:43:21.201Z,94273.50
2023-02-02T16:45:53.718Z,94285.16
2023-02-02T16:48:36.975Z,94280.53
2023-02-02T16:51:05.994Z,94293.66
2023-02-02T16:53:32.943Z,94289.31
2023-02-02T16:55:59.708Z,94303.53
2023-02-02T16:58:27.118Z,94292.81
2023-02-02T17:01:16.277Z,94305.47
2023-02-02T17:03:53.370Z,94315.56
2023-02-02T17:06:45.705Z,94319.69
2023-02-02T17:09:28.765Z,94324.00
2023-02-02T17:12:30.710Z,94321.63
2023-02-02T17:15:05.098Z,94341.13
2023-02-02T17:17:31.935Z,94338.09
2023-02-02T17:19:58.591Z,94333.28
2023-02-02T17:22:25.983Z,94344.00
2023-02-02T17:24:52.793Z,94358.22
2023-02-02T17:27:28.711Z,94353.75
2023-02-02T17:29:55.895Z,94362.38
2023-02-02T17:32:25.122Z,94366.84
2023-02-02T17:34:51.898Z,94375.66
2023-02-02T17:37:18.823Z,94382.69
2023-02-02T17:39:45.711Z,94376.78
2023-02-02T17:42:27.058Z,94390.06
2023-02-02T17:44:53.948Z,94394.72
2023-02-02T17:47:20.732Z,94398.06
2023-02-02T17:49:47.586Z,94403.19
2023-02-02T17:52:14.292Z,94396.31
2023-02-02T17:54:41.029Z,94402.88
2023-02-02T17:57:07.805Z,94420.31
2023-02-02T17:59:34.591Z,94421.25
2023-02-02T18:02:01.642Z,94415.97
2023-02-02T18:04:28.655Z,94440.78
2023-02-02T18:06:55.355Z,94417.91
2023-02-02T18:09:22.199Z,94438.38
2023-02-02T18:11:49.969Z,94451.66
2023-02-02T18:14:16.741Z,94443.03
2023-02-02T18:16:43.453Z,94448.44
2023-02-02T18:19:10.447Z,94462.69
2023-02-02T18:21:37.563Z,94463.34
2023-02-02T18:24:05.064Z,94462.84
2023-02-02T18:26:32.740Z,94469.25
2023-02-02T18:28:59.614Z,94470.69
2023-02-02T18:31:27.082Z,94478.50
2023-02-02T18:33:54.613Z,94485.56
2023-02-02T18:36:23.687Z,94481.72
2023-02-02T18:38:51.442Z,94488.72
2023-02-02T18:49:08.175Z,94507.59
2023-02-02T18:51:34.984Z,94519.38
2023-02-02T18:54:02.348Z,94511.81
2023-02-02T18:56:30.251Z,94509.19
2023-02-02T18:58:58.226Z,94523.38
2023-02-02T19:01:26.289Z,94526.41
2023-02-02T19:03:54.282Z,94542.09
2023-02-02T19:06:40.096Z,94545.97
2023-02-02T19:09:07.248Z,94549.53
2023-02-02T19:11:43.087Z,94538.44
2023-02-02T19:14:20.272Z,94547.22
2023-02-02T19:16:48.492Z,94557.06
2023-02-02T19:19:33.835Z,94555.31
2023-02-02T19:22:04.423Z,94556.75
2023-02-02T19:24:39.055Z,94548.94
2023-02-02T19:27:29.301Z,94558.84
2023-02-02T19:30:00.062Z,94555.84
2023-02-02T19:32:29.585Z,94556.50
2023-02-02T19:34:58.861Z,94567.84
2023-02-02T19:37:30.151Z,94570.69
2023-02-02T19:40:08.957Z,94570.34
2023-02-02T19:42:40.783Z,94569.09
2023-02-02T19:45:26.370Z,94572.81
2023-02-02T19:47:55.969Z,94571.69
2023-02-02T19:50:28.000Z,94587.56
2023-02-02T19:52:55.982Z,94588.50
2023-02-02T19:55:24.341Z,94581.09
2023-02-02T19:57:52.876Z,94590.69
2023-02-02T20:00:30.420Z,94600.09
2023-02-02T20:03:02.876Z,94608.50
2023-02-02T20:05:39.669Z,94601.84
2023-02-02T20:08:18.705Z,94612.75
2023-02-02T20:10:46.330Z,94621.84
2023-02-02T20:13:16.964Z,94613.06
2023-02-02T20:15:43.806Z,94614.19
2023-02-02T20:18:17.280Z,94613.84
2023-02-02T20:20:45.351Z,94630.84
2023-02-02T20:23:35.098Z,94627.78
2023-02-02T20:26:06.485Z,94635.44
2023-02-02T20:28:43.539Z,94644.66
2023-02-02T20:31:13.664Z,94637.13
2023-02-02T20:33:44.561Z,94643.63
2023-02-02T20:36:33.200Z,94650.22
2023-02-02T20:39:33.649Z,94646.63
2023-02-02T20:42:01.553Z,94655.19
2023-02-02T20:44:29.959Z,94653.78
2023-02-02T20:46:57.395Z,94661.47
2023-02-02T20:49:26.736Z,94662.13
2023-02-02T20:51:55.053Z,94662.13
2023-02-02T20:54:23.199Z,94663.16
2023-02-02T20:56:50.235Z,94670.69
2023-02-02T20:59:17.447Z,94676.31
2023-02-02T21:01:44.071Z,94676.44
2023-02-02T21:04:10.970Z,94670.03
2023-02-02T21:06:39.077Z,94676.75
2023-02-02T21:09:07.240Z,94668.13
2023-02-02T21:11:34.695Z,94674.56
2023-02-02T21:14:01.567Z,94671.34
2023-02-02T21:16:28.208Z,94678.13
2023-02-02T21:18:54.976Z,94683.47
2023-02-02T21:21:22.755Z,94686.97
2023-02-02T21:23:51.583Z,94679.25
2023-02-02T21:26:20.508Z,94686.97
2023-02-02T21:28:47.137Z,94696.34
2023-02-02T21:31:15.431Z,94698.09
2023-02-02T21:33:46.521Z,94703.06
2023-02-02T21:36:33.039Z,94704.22
2023-02-02T21:39:21.940Z,94707.31
2023-02-02T21:41:49.955Z,94706.78
2023-02-02T21:44:18.986Z,94708.75
2023-02-02T21:46:47.358Z,94699.63
2023-02-02T21:49:37.207Z,94706.06
2023-02-02T21:52:14.394Z,94706.44
2023-02-02T21:54:41.637Z,94706.88
2023-02-02T21:57:22.528Z,94709.28
2023-02-02T21:59:54.700Z,94711.69
2023-02-02T22:02:48.364Z,94709.78
2023-02-02T22:05:19.326Z,94721.94
2023-02-02T22:07:48.906Z,94721.13
2023-02-02T22:10:40.377Z,94720.22
2023-02-02T22:13:21.830Z,94717.69
2023-02-02T22:15:51.146Z,94714.69
2023-02-02T22:18:19.954Z,94714.97
2023-02-02T22:20:50.716Z,94726.81
2023-02-02T22:23:22.748Z,94726.31
2023-02-02T22:25:51.758Z,94726.00
2023-02-02T22:28:26.212Z,94728.50
2023-02-02T22:30:54.156Z,94729.94
2023-02-02T22:33:21.680Z,94736.97
2023-02-02T22:35:48.579Z,94727.38
2023-02-02T22:38:17.685Z,94732.34
2023-02-02T22:40:45.216Z,94733.63
2023-02-02T22:43:13.453Z,94738.66
2023-02-02T22:45:40.134Z,94739.19
2023-02-02T22:48:06.705Z,94754.31
2023-02-02T22:50:35.025Z,94748.66
2023-02-02T22:53:02.698Z,94748.53
2023-02-02T22:55:29.403Z,94750.56
2023-02-02T22:57:55.973Z,94748.94
2023-02-02T23:00:26.028Z,94749.63
2023-02-02T23:02:53.763Z,94751.97
2023-02-02T23:05:21.017Z,94749.63
2023-02-02T23:07:49.003Z,94747.19
2023-02-02T23:10:21.086Z,94756.06
2023-02-02T23:12:48.726Z,94750.28
2023-02-02T23:15:15.640Z,94744.81
2023-02-02T23:17:42.619Z,94758.63
2023-02-02T23:20:11.896Z,94760.16
2023-02-02T23:22:38.816Z,94758.38
2023-02-02T23:25:05.870Z,94765.63
2023-02-02T23:27:32.706Z,94759.72
2023-02-02T23:29:59.400Z,94754.25
2023-02-02T23:32:26.002Z,94766.94
2023-02-02T23:34:52.576Z,94768.19
2023-02-02T23:37:19.150Z,94770.69
2023-02-02T23:39:45.747Z,94761.53
2023-02-02T23:42:12.352Z,94768.13
2023-02-02T23:44:39.013Z,94767.31
2023-02-02T23:47:05.914Z,94769.88
2023-02-02T23:49:33.337Z,94768.47
2023-02-02T23:52:00.310Z,94770.16
2023-02-02T23:54:28.052Z,94769.00
2023-02-02T23:56:55.387Z,94763.50
2023-02-02T23:59:22.118Z,94773.72
